sensor_id;sensor_type;location;lat;lon;timestamp;P1;durP1;ratioP1;P2;durP2;ratioP2
50429;SDS011;36359;41.556;-8.418;2023-07-20T00:00:29;10.65;;;4.35;;
50429;SDS011;36359;41.556;-8.418;2023-07-20T00:03:09;11.43;;;4.53;;
50429;SDS011;36359;41.556;-8.418;2023-07-20T00:05:38;8.32;;;3.65;;
50429;SDS011;36359;41.556;-8.418;2023-07-20T00:08:04;8.43;;;4.20;;
50429;SDS011;36359;41.556;-8.418;2023-07-20T00:10:29;13.25;;;5.10;;
50429;SDS011;36359;41.556;-8.418;2023-07-20T00:12:55;13.40;;;4.80;;
50429;SDS011;36359;41.556;-8.418;2023-07-20T00:15:21;11.55;;;4.55;;
50429;SDS011;36359;41.556;-8.418;2023-07-20T00:17:46;12.73;;;4.53;;
50429;SDS011;36359;41.556;-8.418;2023-07-20T00:20:12;15.15;;;4.85;;
50429;SDS011;36359;41.556;-8.418;2023-07-20T00:22:38;12.70;;;5.00;;
50429;SDS011;36359;41.556;-8.418;2023-07-20T00:25:04;15.88;;;5.47;;
50429;SDS011;36359;41.556;-8.418;2023-07-20T00:27:30;14.00;;;5.95;;
50429;SDS011;36359;41.556;-8.418;2023-07-20T00:29:55;12.20;;;6.07;;
50429;SDS011;36359;41.556;-8.418;2023-07-20T00:32:21;10.85;;;5.65;;
50429;SDS011;36359;41.556;-8.418;2023-07-20T00:34:46;13.38;;;5.70;;
50429;SDS011;36359;41.556;-8.418;2023-07-20T00:37:13;15.32;;;6.45;;
50429;SDS011;36359;41.556;-8.418;2023-07-20T00:39:38;16.48;;;6.43;;
50429;SDS011;36359;41.556;-8.418;2023-07-20T00:42:04;13.68;;;5.90;;
50429;SDS011;36359;41.556;-8.418;2023-07-20T00:44:30;11.63;;;5.43;;
50429;SDS011;36359;41.556;-8.418;2023-07-20T00:46:56;18.85;;;6.78;;
50429;SDS011;36359;41.556;-8.418;2023-07-20T00:49:21;15.32;;;5.68;;
50429;SDS011;36359;41.556;-8.418;2023-07-20T00:51:49;16.40;;;5.57;;
50429;SDS011;36359;41.556;-8.418;2023-07-20T00:54:15;14.30;;;5.93;;
50429;SDS011;36359;41.556;-8.418;2023-07-20T00:56:42;16.17;;;5.43;;
50429;SDS011;36359;41.556;-8.418;2023-07-20T00:59:09;13.75;;;5.57;;
50429;SDS011;36359;41.556;-8.418;2023-07-20T01:01:35;12.68;;;5.00;;
50429;SDS011;36359;41.556;-8.418;2023-07-20T01:04:01;17.25;;;5.32;;
50429;SDS011;36359;41.556;-8.418;2023-07-20T01:06:30;14.75;;;5.75;;
50429;SDS011;36359;41.556;-8.418;2023-07-20T01:09:09;10.65;;;5.22;;
50429;SDS011;36359;41.556;-8.418;2023-07-20T01:11:48;17.33;;;5.70;;
50429;SDS011;36359;41.556;-8.418;2023-07-20T01:14:15;15.07;;;5.60;;
50429;SDS011;36359;41.556;-8.418;2023-07-20T01:16:42;16.33;;;4.78;;
50429;SDS011;36359;41.556;-8.418;2023-07-20T01:19:08;12.60;;;4.43;;
50429;SDS011;36359;41.556;-8.418;2023-07-20T01:21:41;15.18;;;5.70;;
50429;SDS011;36359;41.556;-8.418;2023-07-20T01:32:25;12.90;;;5.13;;
50429;SDS011;36359;41.556;-8.418;2023-07-20T01:34:53;19.27;;;6.13;;
50429;SDS011;36359;41.556;-8.418;2023-07-20T01:37:20;14.82;;;5.95;;
50429;SDS011;36359;41.556;-8.418;2023-07-20T01:39:51;16.55;;;5.88;;
50429;SDS011;36359;41.556;-8.418;2023-07-20T01:42:24;21.63;;;6.07;;
50429;SDS011;36359;41.556;-8.418;2023-07-20T01:44:50;18.70;;;7.93;;
50429;SDS011;36359;41.556;-8.418;2023-07-20T01:47:18;15.93;;;9.07;;
50429;SDS011;36359;41.556;-8.418;2023-07-20T01:49:43;16.40;;;6.80;;
50429;SDS011;36359;41.556;-8.418;2023-07-20T01:52:09;14.43;;;5.95;;
50429;SDS011;36359;41.556;-8.418;2023-07-20T01:54:35;13.57;;;5.65;;
50429;SDS011;36359;41.556;-8.418;2023-07-20T01:57:01;15.40;;;5.68;;
50429;SDS011;36359;41.556;-8.418;2023-07-20T01:59:27;21.88;;;6.47;;
50429;SDS011;36359;41.556;-8.418;2023-07-20T02:01:53;15.32;;;6.03;;
50429;SDS011;36359;41.556;-8.418;2023-07-20T02:04:18;20.10;;;5.65;;
50429;SDS011;36359;41.556;-8.418;2023-07-20T02:06:44;15.52;;;5.90;;
50429;SDS011;36359;41.556;-8.418;2023-07-20T02:09:10;17.08;;;6.60;;
50429;SDS011;36359;41.556;-8.418;2023-07-20T02:11:36;16.73;;;6.05;;
50429;SDS011;36359;41.556;-8.418;2023-07-20T02:14:01;14.55;;;5.70;;
50429;SDS011;36359;41.556;-8.418;2023-07-20T02:16:27;15.95;;;6.35;;
50429;SDS011;36359;41.556;-8.418;2023-07-20T02:18:53;14.75;;;6.28;;
50429;SDS011;36359;41.556;-8.418;2023-07-20T02:21:18;16.08;;;5.93;;
50429;SDS011;36359;41.556;-8.418;2023-07-20T02:23:44;14.57;;;6.15;;
50429;SDS011;36359;41.556;-8.418;2023-07-20T02:26:10;20.48;;;7.00;;
50429;SDS011;36359;41.556;-8.418;2023-07-20T02:28:36;18.85;;;6.80;;
50429;SDS011;36359;41.556;-8.418;2023-07-20T02:31:02;18.70;;;6.45;;
50429;SDS011;36359;41.556;-8.418;2023-07-20T02:33:28;18.83;;;6.75;;
50429;SDS011;36359;41.556;-8.418;2023-07-20T02:35:54;16.65;;;6.30;;
50429;SDS011;36359;41.556;-8.418;2023-07-20T02:38:20;16.65;;;6.43;;
50429;SDS011;36359;41.556;-8.418;2023-07-20T02:40:46;20.35;;;6.35;;
50429;SDS011;36359;41.556;-8.418;2023-07-20T02:43:11;23.48;;;6.47;;
50429;SDS011;36359;41.556;-8.418;2023-07-20T02:45:40;15.13;;;5.70;;
50429;SDS011;36359;41.556;-8.418;2023-07-20T02:48:08;17.17;;;5.95;;
50429;SDS011;36359;41.556;-8.418;2023-07-20T02:50:33;20.25;;;7.10;;
50429;SDS011;36359;41.556;-8.418;2023-07-20T02:53:00;20.05;;;6.72;;
50429;SDS011;36359;41.556;-8.418;2023-07-20T02:55:26;17.90;;;6.72;;
50429;SDS011;36359;41.556;-8.418;2023-07-20T02:57:52;21.17;;;7.10;;
50429;SDS011;36359;41.556;-8.418;2023-07-20T03:00:18;15.95;;;6.35;;
50429;SDS011;36359;41.556;-8.418;2023-07-20T03:02:45;21.33;;;6.07;;
50429;SDS011;36359;41.556;-8.418;2023-07-20T03:05:18;18.55;;;6.82;;
50429;SDS011;36359;41.556;-8.418;2023-07-20T03:07:43;18.10;;;6.80;;
50429;SDS011;36359;41.556;-8.418;2023-07-20T03:10:09;21.45;;;6.35;;
50429;SDS011;36359;41.556;-8.418;2023-07-20T03:12:35;20.80;;;7.68;;
50429;SDS011;36359;41.556;-8.418;2023-07-20T03:15:02;15.25;;;6.80;;
50429;SDS011;36359;41.556;-8.418;2023-07-20T03:17:28;21.55;;;7.35;;
50429;SDS011;36359;41.556;-8.418;2023-07-20T03:19:54;14.77;;;6.57;;
50429;SDS011;36359;41.556;-8.418;2023-07-20T03:22:21;22.13;;;7.55;;
50429;SDS011;36359;41.556;-8.418;2023-07-20T03:24:47;17.40;;;6.72;;
50429;SDS011;36359;41.556;-8.418;2023-07-20T03:27:13;17.70;;;6.63;;
50429;SDS011;36359;41.556;-8.418;2023-07-20T03:29:39;17.63;;;6.68;;
50429;SDS011;36359;41.556;-8.418;2023-07-20T03:32:05;18.17;;;6.40;;
50429;SDS011;36359;41.556;-8.418;2023-07-20T03:34:31;20.45;;;7.22;;
50429;SDS011;36359;41.556;-8.418;2023-07-20T03:36:57;21.05;;;6.70;;
50429;SDS011;36359;41.556;-8.418;2023-07-20T03:39:22;17.92;;;6.30;;
50429;SDS011;36359;41.556;-8.418;2023-07-20T03:41:48;16.42;;;6.97;;
50429;SDS011;36359;41.556;-8.418;2023-07-20T03:44:14;19.50;;;7.25;;
50429;SDS011;36359;41.556;-8.418;2023-07-20T03:46:39;15.20;;;6.68;;
50429;SDS011;36359;41.556;-8.418;2023-07-20T03:49:05;20.48;;;7.20;;
50429;SDS011;36359;41.556;-8.418;2023-07-20T03:51:31;22.33;;;7.57;;
50429;SDS011;36359;41.556;-8.418;2023-07-20T03:53:57;20.75;;;6.93;;
50429;SDS011;36359;41.556;-8.418;2023-07-20T03:56:23;19.67;;;6.80;;
50429;SDS011;36359;41.556;-8.418;2023-07-20T03:58:49;21.13;;;7.07;;
50429;SDS011;36359;41.556;-8.418;2023-07-20T04:01:15;15.25;;;6.95;;
50429;SDS011;36359;41.556;-8.418;2023-07-20T04:03:42;19.15;;;6.95;;
50429;SDS011;36359;41.556;-8.418;2023-07-20T04:06:08;21.90;;;7.10;;
50429;SDS011;36359;41.556;-8.418;2023-07-20T04:08:35;18.27;;;6.95;;
50429;SDS011;36359;41.556;-8.418;2023-07-20T04:11:02;19.63;;;6.85;;
50429;SDS011;36359;41.556;-8.418;2023-07-20T04:13:28;21.95;;;7.50;;
50429;SDS011;36359;41.556;-8.418;2023-07-20T04:15:54;27.98;;;8.57;;
50429;SDS011;36359;41.556;-8.418;2023-07-20T04:18:20;24.33;;;8.00;;
50429;SDS011;36359;41.556;-8.418;2023-07-20T04:20:46;21.55;;;7.85;;
50429;SDS011;36359;41.556;-8.418;2023-07-20T04:23:12;22.60;;;8.23;;
50429;SDS011;36359;41.556;-8.418;2023-07-20T04:25:41;20.75;;;8.02;;
50429;SDS011;36359;41.556;-8.418;2023-07-20T04:28:10;24.45;;;8.15;;
50429;SDS011;36359;41.556;-8.418;2023-07-20T04:30:37;14.65;;;6.72;;
50429;SDS011;36359;41.556;-8.418;2023-07-20T04:33:05;21.40;;;7.78;;
50429;SDS011;36359;41.556;-8.418;2023-07-20T04:35:44;25.55;;;9.00;;
50429;SDS011;36359;41.556;-8.418;2023-07-20T04:38:15;23.35;;;9.88;;
50429;SDS011;36359;41.556;-8.418;2023-07-20T04:40:46;20.70;;;8.30;;
50429;SDS011;36359;41.556;-8.418;2023-07-20T04:45:40;21.27;;;10.63;;
50429;SDS011;36359;41.556;-8.418;2023-07-20T04:48:08;21.88;;;10.93;;
50429;SDS011;36359;41.556;-8.418;2023-07-20T04:53:03;20.50;;;9.90;;
50429;SDS011;36359;41.556;-8.418;2023-07-20T04:55:29;26.45;;;11.45;;
50429;SDS011;36359;41.556;-8.418;2023-07-20T05:00:27;28.83;;;14.07;;
50429;SDS011;36359;41.556;-8.418;2023-07-20T05:02:53;23.02;;;12.00;;
50429;SDS011;36359;41.556;-8.418;2023-07-20T05:05:19;15.18;;;7.93;;
50429;SDS011;36359;41.556;-8.418;2023-07-20T05:07:45;31.77;;;17.17;;
50429;SDS011;36359;41.556;-8.418;2023-07-20T05:10:11;29.20;;;16.00;;
50429;SDS011;36359;41.556;-8.418;2023-07-20T05:12:37;29.58;;;17.42;;
50429;SDS011;36359;41.556;-8.418;2023-07-20T05:15:03;33.35;;;17.88;;
50429;SDS011;36359;41.556;-8.418;2023-07-20T05:17:29;38.28;;;20.58;;
50429;SDS011;36359;41.556;-8.418;2023-07-20T05:19:55;33.97;;;20.63;;
50429;SDS011;36359;41.556;-8.418;2023-07-20T05:22:20;36.58;;;20.95;;
50429;SDS011;36359;41.556;-8.418;2023-07-20T05:24:46;32.03;;;19.27;;
50429;SDS011;36359;41.556;-8.418;2023-07-20T05:27:12;29.35;;;17.50;;
50429;SDS011;36359;41.556;-8.418;2023-07-20T05:29:37;28.92;;;14.80;;
50429;SDS011;36359;41.556;-8.418;2023-07-20T05:34:35;32.83;;;16.58;;
50429;SDS011;36359;41.556;-8.418;2023-07-20T05:37:00;31.92;;;16.77;;
50429;SDS011;36359;41.556;-8.418;2023-07-20T05:39:26;29.25;;;16.10;;
50429;SDS011;36359;41.556;-8.418;2023-07-20T05:41:52;30.02;;;16.33;;
50429;SDS011;36359;41.556;-8.418;2023-07-20T05:44:18;27.40;;;15.60;;
50429;SDS011;36359;41.556;-8.418;2023-07-20T05:46:43;24.70;;;15.80;;
50429;SDS011;36359;41.556;-8.418;2023-07-20T05:49:09;18.77;;;10.02;;
50429;SDS011;36359;41.556;-8.418;2023-07-20T05:51:35;23.38;;;14.55;;
50429;SDS011;36359;41.556;-8.418;2023-07-20T05:54:01;24.92;;;16.00;;
50429;SDS011;36359;41.556;-8.418;2023-07-20T05:56:27;26.00;;;15.82;;
50429;SDS011;36359;41.556;-8.418;2023-07-20T05:58:53;24.52;;;15.50;;
50429;SDS011;36359;41.556;-8.418;2023-07-20T06:01:18;26.10;;;18.33;;
50429;SDS011;36359;41.556;-8.418;2023-07-20T06:03:44;21.17;;;14.13;;
50429;SDS011;36359;41.556;-8.418;2023-07-20T06:06:10;22.52;;;15.20;;
50429;SDS011;36359;41.556;-8.418;2023-07-20T06:08:37;24.80;;;14.85;;
50429;SDS011;36359;41.556;-8.418;2023-07-20T06:11:03;24.83;;;16.77;;
50429;SDS011;36359;41.556;-8.418;2023-07-20T06:13:29;18.13;;;12.57;;
50429;SDS011;36359;41.556;-8.418;2023-07-20T06:15:55;24.83;;;13.65;;
50429;SDS011;36359;41.556;-8.418;2023-07-20T06:18:23;25.38;;;15.50;;
50429;SDS011;36359;41.556;-8.418;2023-07-20T06:20:52;27.70;;;18.17;;
50429;SDS011;36359;41.556;-8.418;2023-07-20T06:23:18;28.15;;;17.65;;
50429;SDS011;36359;41.556;-8.418;2023-07-20T06:25:45;30.63;;;18.48;;
50429;SDS011;36359;41.556;-8.418;2023-07-20T06:28:11;31.77;;;18.13;;
50429;SDS011;36359;41.556;-8.418;2023-07-20T06:30:37;29.73;;;16.63;;
50429;SDS011;36359;41.556;-8.418;2023-07-20T06:33:03;29.85;;;17.85;;
50429;SDS011;36359;41.556;-8.418;2023-07-20T06:35:28;32.15;;;17.25;;
50429;SDS011;36359;41.556;-8.418;2023-07-20T06:37:54;31.50;;;17.73;;
50429;SDS011;36359;41.556;-8.418;2023-07-20T06:40:20;34.72;;;18.30;;
50429;SDS011;36359;41.556;-8.418;2023-07-20T06:42:46;17.17;;;10.13;;
50429;SDS011;36359;41.556;-8.418;2023-07-20T06:45:12;23.95;;;13.77;;
50429;SDS011;36359;41.556;-8.418;2023-07-20T06:47:38;22.67;;;14.43;;
50429;SDS011;36359;41.556;-8.418;2023-07-20T06:50:05;36.05;;;20.23;;
50429;SDS011;36359;41.556;-8.418;2023-07-20T06:52:34;29.05;;;18.88;;
50429;SDS011;36359;41.556;-8.418;2023-07-20T06:55:01;34.70;;;21.13;;
50429;SDS011;36359;41.556;-8.418;2023-07-20T06:57:26;24.52;;;14.98;;
50429;SDS011;36359;41.556;-8.418;2023-07-20T06:59:52;36.45;;;20.90;;
50429;SDS011;36359;41.556;-8.418;2023-07-20T07:02:18;19.65;;;11.25;;
50429;SDS011;36359;41.556;-8.418;2023-07-20T07:04:44;22.25;;;15.77;;
50429;SDS011;36359;41.556;-8.418;2023-07-20T07:07:15;22.50;;;13.63;;
50429;SDS011;36359;41.556;-8.418;2023-07-20T07:09:41;34.22;;;21.52;;
50429;SDS011;36359;41.556;-8.418;2023-07-20T07:12:07;24.77;;;14.50;;
50429;SDS011;36359;41.556;-8.418;2023-07-20T07:14:33;38.40;;;20.88;;
50429;SDS011;36359;41.556;-8.418;2023-07-20T07:16:59;31.90;;;19.33;;
50429;SDS011;36359;41.556;-8.418;2023-07-20T07:19:25;33.15;;;18.75;;
50429;SDS011;36359;41.556;-8.418;2023-07-20T07:21:51;31.15;;;20.45;;
50429;SDS011;36359;41.556;-8.418;2023-07-20T07:24:16;21.73;;;11.93;;
50429;SDS011;36359;41.556;-8.418;2023-07-20T07:26:42;30.85;;;18.25;;
50429;SDS011;36359;41.556;-8.418;2023-07-20T07:29:08;36.25;;;18.48;;
50429;SDS011;36359;41.556;-8.418;2023-07-20T07:31:34;27.13;;;16.67;;
50429;SDS011;36359;41.556;-8.418;2023-07-20T07:34:01;32.47;;;17.58;;
50429;SDS011;36359;41.556;-8.418;2023-07-20T07:36:28;19.02;;;12.60;;
50429;SDS011;36359;41.556;-8.418;2023-07-20T07:38:54;26.38;;;14.98;;
50429;SDS011;36359;41.556;-8.418;2023-07-20T07:41:19;28.92;;;17.30;;
50429;SDS011;36359;41.556;-8.418;2023-07-20T07:43:46;37.20;;;20.90;;
50429;SDS011;36359;41.556;-8.418;2023-07-20T07:46:11;35.30;;;21.33;;
50429;SDS011;36359;41.556;-8.418;2023-07-20T07:48:38;34.25;;;20.10;;
50429;SDS011;36359;41.556;-8.418;2023-07-20T07:51:04;26.25;;;16.02;;
50429;SDS011;36359;41.556;-8.418;2023-07-20T07:53:30;29.20;;;17.80;;
50429;SDS011;36359;41.556;-8.418;2023-07-20T07:55:55;31.00;;;18.38;;
50429;SDS011;36359;41.556;-8.418;2023-07-20T07:58:21;15.20;;;10.00;;
50429;SDS011;36359;41.556;-8.418;2023-07-20T08:00:47;23.90;;;14.95;;
50429;SDS011;36359;41.556;-8.418;2023-07-20T08:03:13;35.75;;;21.75;;
50429;SDS011;36359;41.556;-8.418;2023-07-20T08:05:38;20.35;;;14.15;;
50429;SDS011;36359;41.556;-8.418;2023-07-20T08:08:04;31.23;;;16.13;;
50429;SDS011;36359;41.556;-8.418;2023-07-20T08:10:30;29.17;;;16.75;;
50429;SDS011;36359;41.556;-8.418;2023-07-20T08:12:56;40.97;;;22.00;;
50429;SDS011;36359;41.556;-8.418;2023-07-20T08:15:21;31.52;;;18.75;;
50429;SDS011;36359;41.556;-8.418;2023-07-20T08:17:47;32.70;;;18.85;;
50429;SDS011;36359;41.556;-8.418;2023-07-20T08:20:14;32.13;;;19.55;;
50429;SDS011;36359;41.556;-8.418;2023-07-20T08:22:41;30.55;;;16.95;;
50429;SDS011;36359;41.556;-8.418;2023-07-20T08:25:07;29.08;;;16.23;;
50429;SDS011;36359;41.556;-8.418;2023-07-20T08:27:34;31.05;;;18.58;;
50429;SDS011;36359;41.556;-8.418;2023-07-20T08:30:00;30.83;;;19.52;;
50429;SDS011;36359;41.556;-8.418;2023-07-20T08:32:26;29.58;;;17.45;;
50429;SDS011;36359;41.556;-8.418;2023-07-20T08:34:52;28.38;;;18.13;;
50429;SDS011;36359;41.556;-8.418;2023-07-20T08:37:18;28.58;;;16.75;;
50429;SDS011;36359;41.556;-8.418;2023-07-20T08:39:43;21.10;;;11.52;;
50429;SDS011;36359;41.556;-8.418;2023-07-20T08:42:09;30.13;;;17.58;;
50429;SDS011;36359;41.556;-8.418;2023-07-20T08:44:38;14.25;;;9.98;;
50429;SDS011;36359;41.556;-8.418;2023-07-20T08:47:06;29.67;;;19.92;;
50429;SDS011;36359;41.556;-8.418;2023-07-20T08:49:34;25.10;;;16.08;;
50429;SDS011;36359;41.556;-8.418;2023-07-20T08:51:59;36.08;;;21.27;;
50429;SDS011;36359;41.556;-8.418;2023-07-20T08:54:29;32.08;;;19.73;;
50429;SDS011;36359;41.556;-8.418;2023-07-20T08:57:03;25.40;;;16.48;;
50429;SDS011;36359;41.556;-8.418;2023-07-20T08:59:30;33.15;;;20.10;;
50429;SDS011;36359;41.556;-8.418;2023-07-20T09:02:00;38.13;;;21.67;;
50429;SDS011;36359;41.556;-8.418;2023-07-20T09:04:27;28.95;;;17.38;;
50429;SDS011;36359;41.556;-8.418;2023-07-20T09:06:53;29.75;;;17.80;;
50429;SDS011;36359;41.556;-8.418;2023-07-20T09:09:20;21.20;;;14.13;;
50429;SDS011;36359;41.556;-8.418;2023-07-20T09:11:48;17.45;;;10.60;;
50429;SDS011;36359;41.556;-8.418;2023-07-20T09:14:15;31.42;;;18.75;;
50429;SDS011;36359;41.556;-8.418;2023-07-20T09:16:49;13.23;;;9.38;;
50429;SDS011;36359;41.556;-8.418;2023-07-20T09:19:19;29.85;;;18.52;;
50429;SDS011;36359;41.556;-8.418;2023-07-20T09:21:47;28.55;;;18.40;;
50429;SDS011;36359;41.556;-8.418;2023-07-20T09:24:14;32.53;;;19.63;;
50429;SDS011;36359;41.556;-8.418;2023-07-20T09:26:41;32.25;;;18.92;;
50429;SDS011;36359;41.556;-8.418;2023-07-20T09:29:13;27.60;;;17.70;;
50429;SDS011;36359;41.556;-8.418;2023-07-20T09:31:40;27.73;;;18.33;;
50429;SDS011;36359;41.556;-8.418;2023-07-20T09:34:06;30.90;;;20.15;;
50429;SDS011;36359;41.556;-8.418;2023-07-20T09:36:35;29.33;;;17.80;;
50429;SDS011;36359;41.556;-8.418;2023-07-20T09:39:02;27.92;;;19.52;;
50429;SDS011;36359;41.556;-8.418;2023-07-20T09:41:30;35.70;;;22.63;;
50429;SDS011;36359;41.556;-8.418;2023-07-20T09:44:05;29.70;;;16.52;;
50429;SDS011;36359;41.556;-8.418;2023-07-20T09:46:49;35.28;;;22.35;;
50429;SDS011;36359;41.556;-8.418;2023-07-20T09:49:19;38.28;;;23.25;;
50429;SDS011;36359;41.556;-8.418;2023-07-20T09:51:48;27.52;;;17.20;;
50429;SDS011;36359;41.556;-8.418;2023-07-20T09:54:14;35.60;;;22.20;;
50429;SDS011;36359;41.556;-8.418;2023-07-20T09:56:40;23.27;;;13.30;;
50429;SDS011;36359;41.556;-8.418;2023-07-20T09:59:07;33.58;;;21.95;;
50429;SDS011;36359;41.556;-8.418;2023-07-20T10:01:34;30.83;;;20.92;;
50429;SDS011;36359;41.556;-8.418;2023-07-20T10:04:02;43.10;;;24.45;;
50429;SDS011;36359;41.556;-8.418;2023-07-20T10:06:30;27.63;;;18.20;;
50429;SDS011;36359;41.556;-8.418;2023-07-20T10:09:00;31.05;;;19.83;;
50429;SDS011;36359;41.556;-8.418;2023-07-20T10:11:29;39.00;;;24.98;;
50429;SDS011;36359;41.556;-8.418;2023-07-20T10:13:57;34.05;;;19.50;;
50429;SDS011;36359;41.556;-8.418;2023-07-20T10:16:26;18.40;;;12.02;;
50429;SDS011;36359;41.556;-8.418;2023-07-20T10:21:51;39.40;;;24.50;;
50429;SDS011;36359;41.556;-8.418;2023-07-20T10:24:26;45.05;;;28.05;;
50429;SDS011;36359;41.556;-8.418;2023-07-20T10:26:53;41.92;;;26.42;;
50429;SDS011;36359;41.556;-8.418;2023-07-20T10:29:20;23.67;;;16.92;;
50429;SDS011;36359;41.556;-8.418;2023-07-20T10:31:48;48.33;;;19.95;;
50429;SDS011;36359;41.556;-8.418;2023-07-20T10:34:15;19.42;;;13.38;;
50429;SDS011;36359;41.556;-8.418;2023-07-20T10:36:45;16.80;;;11.27;;
50429;SDS011;36359;41.556;-8.418;2023-07-20T10:39:33;26.58;;;15.52;;
50429;SDS011;36359;41.556;-8.418;2023-07-20T10:42:07;38.60;;;23.38;;
50429;SDS011;36359;41.556;-8.418;2023-07-20T10:44:38;33.72;;;22.17;;
50429;SDS011;36359;41.556;-8.418;2023-07-20T10:47:11;36.35;;;23.05;;
50429;SDS011;36359;41.556;-8.418;2023-07-20T10:52:24;18.80;;;13.13;;
50429;SDS011;36359;41.556;-8.418;2023-07-20T10:54:50;14.88;;;11.38;;
50429;SDS011;36359;41.556;-8.418;2023-07-20T10:57:23;26.33;;;17.70;;
50429;SDS011;36359;41.556;-8.418;2023-07-20T11:02:42;15.18;;;11.13;;
50429;SDS011;36359;41.556;-8.418;2023-07-20T11:05:31;28.73;;;19.20;;
50429;SDS011;36359;41.556;-8.418;2023-07-20T11:07:57;20.90;;;15.23;;
50429;SDS011;36359;41.556;-8.418;2023-07-20T11:10:23;24.92;;;18.83;;
50429;SDS011;36359;41.556;-8.418;2023-07-20T11:16:08;28.10;;;20.67;;
50429;SDS011;36359;41.556;-8.418;2023-07-20T11:18:34;14.95;;;12.45;;
50429;SDS011;36359;41.556;-8.418;2023-07-20T11:21:06;29.58;;;20.10;;
50429;SDS011;36359;41.556;-8.418;2023-07-20T11:23:34;31.75;;;21.10;;
50429;SDS011;36359;41.556;-8.418;2023-07-20T11:26:03;20.27;;;14.68;;
50429;SDS011;36359;41.556;-8.418;2023-07-20T11:28:32;12.95;;;11.07;;
50429;SDS011;36359;41.556;-8.418;2023-07-20T11:30:59;15.38;;;11.52;;
50429;SDS011;36359;41.556;-8.418;2023-07-20T11:33:26;17.27;;;12.35;;
50429;SDS011;36359;41.556;-8.418;2023-07-20T11:35:51;14.98;;;10.52;;
50429;SDS011;36359;41.556;-8.418;2023-07-20T11:38:18;17.65;;;12.70;;
50429;SDS011;36359;41.556;-8.418;2023-07-20T11:40:44;12.98;;;10.10;;
50429;SDS011;36359;41.556;-8.418;2023-07-20T11:43:11;17.63;;;12.73;;
50429;SDS011;36359;41.556;-8.418;2023-07-20T11:45:38;20.92;;;13.73;;
50429;SDS011;36359;41.556;-8.418;2023-07-20T11:48:04;12.52;;;9.60;;
50429;SDS011;36359;41.556;-8.418;2023-07-20T11:50:30;21.95;;;14.93;;
50429;SDS011;36359;41.556;-8.418;2023-07-20T11:52:55;17.08;;;12.07;;
50429;SDS011;36359;41.556;-8.418;2023-07-20T11:55:22;26.05;;;17.08;;
50429;SDS011;36359;41.556;-8.418;2023-07-20T11:58:04;17.73;;;12.65;;
50429;SDS011;36359;41.556;-8.418;2023-07-20T12:03:05;18.75;;;14.38;;
50429;SDS011;36359;41.556;-8.418;2023-07-20T12:05:37;12.38;;;9.85;;
50429;SDS011;36359;41.556;-8.418;2023-07-20T12:08:03;13.80;;;10.02;;
50429;SDS011;36359;41.556;-8.418;2023-07-20T12:10:29;16.20;;;12.25;;
50429;SDS011;36359;41.556;-8.418;2023-07-20T12:13:00;15.15;;;10.85;;
50429;SDS011;36359;41.556;-8.418;2023-07-20T12:15:28;14.07;;;10.15;;
50429;SDS011;36359;41.556;-8.418;2023-07-20T12:18:00;14.43;;;11.48;;
50429;SDS011;36359;41.556;-8.418;2023-07-20T12:20:37;12.70;;;10.05;;
50429;SDS011;36359;41.556;-8.418;2023-07-20T12:23:09;19.13;;;12.88;;
50429;SDS011;36359;41.556;-8.418;2023-07-20T12:28:07;17.02;;;13.07;;
50429;SDS011;36359;41.556;-8.418;2023-07-20T12:30:34;16.15;;;11.35;;
50429;SDS011;36359;41.556;-8.418;2023-07-20T12:32:59;10.43;;;9.27;;
50429;SDS011;36359;41.556;-8.418;2023-07-20T12:35:25;12.73;;;10.43;;
50429;SDS011;36359;41.556;-8.418;2023-07-20T12:37:51;14.45;;;11.10;;
50429;SDS011;36359;41.556;-8.418;2023-07-20T12:40:17;17.40;;;13.35;;
50429;SDS011;36359;41.556;-8.418;2023-07-20T12:42:43;13.75;;;11.10;;
50429;SDS011;36359;41.556;-8.418;2023-07-20T12:45:09;16.20;;;12.02;;
50429;SDS011;36359;41.556;-8.418;2023-07-20T12:47:36;15.63;;;12.20;;
50429;SDS011;36359;41.556;-8.418;2023-07-20T12:50:01;15.65;;;11.05;;
50429;SDS011;36359;41.556;-8.418;2023-07-20T12:52:29;13.93;;;10.45;;
50429;SDS011;36359;41.556;-8.418;2023-07-20T12:54:55;12.35;;;9.95;;
50429;SDS011;36359;41.556;-8.418;2023-07-20T12:57:21;12.55;;;10.52;;
50429;SDS011;36359;41.556;-8.418;2023-07-20T12:59:46;13.15;;;9.57;;
50429;SDS011;36359;41.556;-8.418;2023-07-20T13:02:15;15.98;;;10.73;;
50429;SDS011;36359;41.556;-8.418;2023-07-20T13:04:40;11.23;;;9.23;;
50429;SDS011;36359;41.556;-8.418;2023-07-20T13:07:09;12.23;;;9.15;;
50429;SDS011;36359;41.556;-8.418;2023-07-20T13:09:37;10.90;;;8.95;;
50429;SDS011;36359;41.556;-8.418;2023-07-20T13:12:03;11.63;;;8.93;;
50429;SDS011;36359;41.556;-8.418;2023-07-20T13:14:28;12.02;;;9.50;;
50429;SDS011;36359;41.556;-8.418;2023-07-20T13:16:57;12.75;;;9.25;;
50429;SDS011;36359;41.556;-8.418;2023-07-20T13:19:23;13.32;;;9.45;;
50429;SDS011;36359;41.556;-8.418;2023-07-20T13:21:49;12.50;;;8.63;;
50429;SDS011;36359;41.556;-8.418;2023-07-20T13:24:14;13.48;;;9.50;;
50429;SDS011;36359;41.556;-8.418;2023-07-20T13:26:40;13.82;;;8.82;;
50429;SDS011;36359;41.556;-8.418;2023-07-20T13:29:06;10.70;;;9.18;;
50429;SDS011;36359;41.556;-8.418;2023-07-20T13:31:32;12.05;;;9.00;;
50429;SDS011;36359;41.556;-8.418;2023-07-20T13:33:57;9.88;;;8.27;;
50429;SDS011;36359;41.556;-8.418;2023-07-20T13:36:23;8.30;;;6.95;;
50429;SDS011;36359;41.556;-8.418;2023-07-20T13:38:49;9.02;;;7.28;;
50429;SDS011;36359;41.556;-8.418;2023-07-20T13:41:15;9.82;;;7.50;;
50429;SDS011;36359;41.556;-8.418;2023-07-20T13:43:41;8.38;;;7.05;;
50429;SDS011;36359;41.556;-8.418;2023-07-20T13:46:07;10.15;;;6.78;;
50429;SDS011;36359;41.556;-8.418;2023-07-20T13:48:33;12.75;;;7.57;;
50429;SDS011;36359;41.556;-8.418;2023-07-20T13:50:59;10.00;;;6.95;;
50429;SDS011;36359;41.556;-8.418;2023-07-20T13:53:25;8.23;;;7.20;;
50429;SDS011;36359;41.556;-8.418;2023-07-20T13:55:50;8.85;;;6.78;;
50429;SDS011;36359;41.556;-8.418;2023-07-20T13:58:17;8.00;;;6.65;;
50429;SDS011;36359;41.556;-8.418;2023-07-20T14:00:43;9.68;;;6.72;;
50429;SDS011;36359;41.556;-8.418;2023-07-20T14:03:09;8.68;;;6.63;;
50429;SDS011;36359;41.556;-8.418;2023-07-20T14:05:34;8.57;;;5.25;;
50429;SDS011;36359;41.556;-8.418;2023-07-20T14:08:00;10.02;;;6.85;;
50429;SDS011;36359;41.556;-8.418;2023-07-20T14:10:26;7.45;;;6.45;;
50429;SDS011;36359;41.556;-8.418;2023-07-20T14:12:52;8.15;;;4.60;;
50429;SDS011;36359;41.556;-8.418;2023-07-20T14:15:17;8.77;;;6.55;;
50429;SDS011;36359;41.556;-8.418;2023-07-20T14:17:44;7.32;;;5.28;;
50429;SDS011;36359;41.556;-8.418;2023-07-20T14:20:10;6.80;;;4.65;;
50429;SDS011;36359;41.556;-8.418;2023-07-20T14:22:36;8.77;;;4.90;;
50429;SDS011;36359;41.556;-8.418;2023-07-20T14:25:02;6.85;;;5.50;;
50429;SDS011;36359;41.556;-8.418;2023-07-20T14:27:28;8.35;;;6.10;;
50429;SDS011;36359;41.556;-8.418;2023-07-20T14:29:53;6.75;;;4.35;;
50429;SDS011;36359;41.556;-8.418;2023-07-20T14:32:20;8.25;;;5.60;;
50429;SDS011;36359;41.556;-8.418;2023-07-20T14:34:45;7.05;;;4.90;;
50429;SDS011;36359;41.556;-8.418;2023-07-20T14:37:11;7.28;;;4.75;;
50429;SDS011;36359;41.556;-8.418;2023-07-20T14:39:38;7.93;;;5.15;;
50429;SDS011;36359;41.556;-8.418;2023-07-20T14:42:04;9.93;;;3.97;;
50429;SDS011;36359;41.556;-8.418;2023-07-20T14:44:30;7.28;;;5.28;;
50429;SDS011;36359;41.556;-8.418;2023-07-20T14:46:55;7.75;;;4.53;;
50429;SDS011;36359;41.556;-8.418;2023-07-20T14:49:21;6.70;;;4.13;;